sensor_id;sensor_type;location;lat;lon;timestamp;P1;durP1;ratioP1;P2;durP2;ratioP2
64498;SDS011;51087;55.718;21.122;2023-11-18T00:01:30;6.68;;;3.60;;
64498;SDS011;51087;55.718;21.122;2023-11-18T00:03:56;7.05;;;3.35;;
64498;SDS011;51087;55.718;21.122;2023-11-18T00:06:21;7.47;;;3.50;;
64498;SDS011;51087;55.718;21.122;2023-11-18T00:08:46;8.75;;;4.07;;
64498;SDS011;51087;55.718;21.122;2023-11-18T00:11:12;8.60;;;3.95;;
64498;SDS011;51087;55.718;21.122;2023-11-18T00:13:38;11.30;;;3.85;;
64498;SDS011;51087;55.718;21.122;2023-11-18T00:16:04;9.82;;;4.60;;
64498;SDS011;51087;55.718;21.122;2023-11-18T00:18:29;9.82;;;4.05;;
64498;SDS011;51087;55.718;21.122;2023-11-18T00:20:57;9.93;;;4.25;;
64498;SDS011;51087;55.718;21.122;2023-11-18T00:23:22;8.88;;;3.50;;
64498;SDS011;51087;55.718;21.122;2023-11-18T00:25:47;7.03;;;3.53;;
64498;SDS011;51087;55.718;21.122;2023-11-18T00:28:12;7.82;;;4.30;;
64498;SDS011;51087;55.718;21.122;2023-11-18T00:30:38;7.30;;;3.50;;
64498;SDS011;51087;55.718;21.122;2023-11-18T00:33:03;7.60;;;4.03;;
64498;SDS011;51087;55.718;21.122;2023-11-18T00:35:29;6.55;;;3.55;;
64498;SDS011;51087;55.718;21.122;2023-11-18T00:37:57;11.35;;;3.65;;
64498;SDS011;51087;55.718;21.122;2023-11-18T00:40:22;8.10;;;3.70;;
64498;SDS011;51087;55.718;21.122;2023-11-18T00:42:47;7.78;;;3.78;;
64498;SDS011;51087;55.718;21.122;2023-11-18T00:45:13;7.10;;;3.50;;
64498;SDS011;51087;55.718;21.122;2023-11-18T00:47:38;8.38;;;4.00;;
64498;SDS011;51087;55.718;21.122;2023-11-18T00:50:06;6.93;;;3.47;;
64498;SDS011;51087;55.718;21.122;2023-11-18T00:52:33;7.90;;;3.35;;
64498;SDS011;51087;55.718;21.122;2023-11-18T00:54:58;7.70;;;3.40;;
64498;SDS011;51087;55.718;21.122;2023-11-18T00:57:24;5.38;;;3.05;;
64498;SDS011;51087;55.718;21.122;2023-11-18T00:59:49;7.80;;;3.60;;
64498;SDS011;51087;55.718;21.122;2023-11-18T01:02:15;8.05;;;3.72;;
64498;SDS011;51087;55.718;21.122;2023-11-18T01:04:40;6.57;;;3.08;;
64498;SDS011;51087;55.718;21.122;2023-11-18T01:07:05;7.63;;;3.40;;
64498;SDS011;51087;55.718;21.122;2023-11-18T01:09:30;8.55;;;3.85;;
64498;SDS011;51087;55.718;21.122;2023-11-18T01:12:01;8.15;;;4.40;;
64498;SDS011;51087;55.718;21.122;2023-11-18T01:14:27;10.10;;;4.13;;
64498;SDS011;51087;55.718;21.122;2023-11-18T01:16:52;7.22;;;3.22;;
64498;SDS011;51087;55.718;21.122;2023-11-18T01:19:17;8.70;;;3.85;;
64498;SDS011;51087;55.718;21.122;2023-11-18T01:21:43;6.97;;;3.13;;
64498;SDS011;51087;55.718;21.122;2023-11-18T01:24:09;7.43;;;3.80;;
64498;SDS011;51087;55.718;21.122;2023-11-18T01:26:34;9.10;;;3.40;;
64498;SDS011;51087;55.718;21.122;2023-11-18T01:29:01;8.18;;;3.50;;
64498;SDS011;51087;55.718;21.122;2023-11-18T01:31:28;9.70;;;4.20;;
64498;SDS011;51087;55.718;21.122;2023-11-18T01:33:53;6.38;;;3.40;;
64498;SDS011;51087;55.718;21.122;2023-11-18T01:36:20;8.65;;;3.67;;
64498;SDS011;51087;55.718;21.122;2023-11-18T01:38:45;7.97;;;3.70;;
64498;SDS011;51087;55.718;21.122;2023-11-18T01:41:11;6.82;;;3.67;;
64498;SDS011;51087;55.718;21.122;2023-11-18T01:43:36;7.15;;;3.47;;
64498;SDS011;51087;55.718;21.122;2023-11-18T01:46:05;8.07;;;3.90;;
64498;SDS011;51087;55.718;21.122;2023-11-18T01:48:32;13.40;;;4.03;;
64498;SDS011;51087;55.718;21.122;2023-11-18T01:51:01;9.90;;;3.78;;
64498;SDS011;51087;55.718;21.122;2023-11-18T01:53:26;8.65;;;3.95;;
64498;SDS011;51087;55.718;21.122;2023-11-18T01:55:53;8.95;;;3.80;;
64498;SDS011;51087;55.718;21.122;2023-11-18T01:58:18;8.95;;;3.67;;
64498;SDS011;51087;55.718;21.122;2023-11-18T02:00:44;8.30;;;3.83;;
64498;SDS011;51087;55.718;21.122;2023-11-18T02:03:11;8.70;;;3.85;;
64498;SDS011;51087;55.718;21.122;2023-11-18T02:05:36;8.82;;;3.38;;
64498;SDS011;51087;55.718;21.122;2023-11-18T02:08:02;10.48;;;4.40;;
64498;SDS011;51087;55.718;21.122;2023-11-18T02:10:35;7.68;;;4.03;;
64498;SDS011;51087;55.718;21.122;2023-11-18T02:15:27;9.27;;;4.25;;
64498;SDS011;51087;55.718;21.122;2023-11-18T02:17:52;7.60;;;4.30;;
64498;SDS011;51087;55.718;21.122;2023-11-18T02:20:18;10.68;;;4.00;;
64498;SDS011;51087;55.718;21.122;2023-11-18T02:22:46;9.15;;;4.20;;
64498;SDS011;51087;55.718;21.122;2023-11-18T02:25:15;10.30;;;4.25;;
64498;SDS011;51087;55.718;21.122;2023-11-18T02:27:40;8.18;;;4.00;;
64498;SDS011;51087;55.718;21.122;2023-11-18T02:30:06;7.07;;;3.63;;
64498;SDS011;51087;55.718;21.122;2023-11-18T02:32:37;7.32;;;4.05;;
64498;SDS011;51087;55.718;21.122;2023-11-18T02:35:15;8.02;;;4.00;;
64498;SDS011;51087;55.718;21.122;2023-11-18T02:37:42;10.13;;;4.18;;
64498;SDS011;51087;55.718;21.122;2023-11-18T02:40:09;10.82;;;4.43;;
64498;SDS011;51087;55.718;21.122;2023-11-18T02:42:39;12.02;;;4.25;;
64498;SDS011;51087;55.718;21.122;2023-11-18T02:45:06;11.98;;;3.97;;
64498;SDS011;51087;55.718;21.122;2023-11-18T02:47:32;8.32;;;4.03;;
64498;SDS011;51087;55.718;21.122;2023-11-18T02:49:58;13.35;;;4.35;;
64498;SDS011;51087;55.718;21.122;2023-11-18T02:52:31;8.05;;;3.92;;
64498;SDS011;51087;55.718;21.122;2023-11-18T02:54:58;9.57;;;3.67;;
64498;SDS011;51087;55.718;21.122;2023-11-18T02:57:23;14.15;;;3.85;;
64498;SDS011;51087;55.718;21.122;2023-11-18T02:59:48;9.98;;;3.97;;
64498;SDS011;51087;55.718;21.122;2023-11-18T03:02:14;8.95;;;4.30;;
64498;SDS011;51087;55.718;21.122;2023-11-18T03:04:40;7.47;;;3.63;;
64498;SDS011;51087;55.718;21.122;2023-11-18T03:07:07;13.07;;;4.32;;
64498;SDS011;51087;55.718;21.122;2023-11-18T03:09:33;9.98;;;4.13;;
64498;SDS011;51087;55.718;21.122;2023-11-18T03:12:00;9.93;;;3.45;;
64498;SDS011;51087;55.718;21.122;2023-11-18T03:14:25;9.30;;;3.83;;
64498;SDS011;51087;55.718;21.122;2023-11-18T03:16:50;10.95;;;4.65;;
64498;SDS011;51087;55.718;21.122;2023-11-18T03:19:15;7.78;;;3.97;;
64498;SDS011;51087;55.718;21.122;2023-11-18T03:21:41;7.10;;;3.97;;
64498;SDS011;51087;55.718;21.122;2023-11-18T03:24:08;9.70;;;4.15;;
64498;SDS011;51087;55.718;21.122;2023-11-18T03:26:34;17.08;;;4.13;;
64498;SDS011;51087;55.718;21.122;2023-11-18T03:28:59;8.82;;;3.85;;
64498;SDS011;51087;55.718;21.122;2023-11-18T03:31:24;6.90;;;3.53;;
64498;SDS011;51087;55.718;21.122;2023-11-18T03:33:50;11.23;;;4.07;;
64498;SDS011;51087;55.718;21.122;2023-11-18T03:36:15;8.15;;;4.28;;
64498;SDS011;51087;55.718;21.122;2023-11-18T03:38:43;8.48;;;3.90;;
64498;SDS011;51087;55.718;21.122;2023-11-18T03:41:08;10.25;;;3.80;;
64498;SDS011;51087;55.718;21.122;2023-11-18T03:43:33;9.85;;;4.13;;
64498;SDS011;51087;55.718;21.122;2023-11-18T03:45:58;7.07;;;3.85;;
64498;SDS011;51087;55.718;21.122;2023-11-18T03:48:24;10.80;;;4.45;;
64498;SDS011;51087;55.718;21.122;2023-11-18T03:50:50;8.32;;;3.80;;
64498;SDS011;51087;55.718;21.122;2023-11-18T03:53:15;10.50;;;4.47;;
64498;SDS011;51087;55.718;21.122;2023-11-18T03:55:40;7.55;;;3.83;;
64498;SDS011;51087;55.718;21.122;2023-11-18T03:58:06;9.70;;;4.10;;
64498;SDS011;51087;55.718;21.122;2023-11-18T04:00:32;9.38;;;4.25;;
64498;SDS011;51087;55.718;21.122;2023-11-18T04:02:58;8.60;;;4.13;;
64498;SDS011;51087;55.718;21.122;2023-11-18T04:05:23;11.18;;;4.43;;
64498;SDS011;51087;55.718;21.122;2023-11-18T04:07:48;8.70;;;4.32;;
64498;SDS011;51087;55.718;21.122;2023-11-18T04:10:14;8.75;;;3.63;;
64498;SDS011;51087;55.718;21.122;2023-11-18T04:12:40;10.50;;;3.85;;
64498;SDS011;51087;55.718;21.122;2023-11-18T04:15:05;11.63;;;4.57;;
64498;SDS011;51087;55.718;21.122;2023-11-18T04:17:31;7.93;;;3.42;;
64498;SDS011;51087;55.718;21.122;2023-11-18T04:19:56;8.02;;;3.83;;
64498;SDS011;51087;55.718;21.122;2023-11-18T04:22:22;9.07;;;4.40;;
64498;SDS011;51087;55.718;21.122;2023-11-18T04:24:47;10.93;;;4.55;;
64498;SDS011;51087;55.718;21.122;2023-11-18T04:27:13;6.85;;;3.90;;
64498;SDS011;51087;55.718;21.122;2023-11-18T04:29:38;12.20;;;4.07;;
64498;SDS011;51087;55.718;21.122;2023-11-18T04:32:05;7.93;;;3.85;;
64498;SDS011;51087;55.718;21.122;2023-11-18T04:34:31;9.25;;;4.45;;
64498;SDS011;51087;55.718;21.122;2023-11-18T04:36:58;9.32;;;4.72;;
64498;SDS011;51087;55.718;21.122;2023-11-18T04:39:23;7.68;;;3.95;;
64498;SDS011;51087;55.718;21.122;2023-11-18T04:41:50;8.90;;;4.38;;
64498;SDS011;51087;55.718;21.122;2023-11-18T04:44:15;9.45;;;4.22;;
64498;SDS011;51087;55.718;21.122;2023-11-18T04:46:41;11.02;;;4.28;;
64498;SDS011;51087;55.718;21.122;2023-11-18T04:49:07;12.32;;;4.20;;
64498;SDS011;51087;55.718;21.122;2023-11-18T04:51:32;11.05;;;4.25;;
64498;SDS011;51087;55.718;21.122;2023-11-18T04:53:58;9.68;;;4.40;;
64498;SDS011;51087;55.718;21.122;2023-11-18T04:56:23;8.00;;;3.97;;
64498;SDS011;51087;55.718;21.122;2023-11-18T04:58:48;10.38;;;4.10;;
64498;SDS011;51087;55.718;21.122;2023-11-18T05:01:14;10.75;;;4.20;;
64498;SDS011;51087;55.718;21.122;2023-11-18T05:03:39;12.23;;;5.07;;
64498;SDS011;51087;55.718;21.122;2023-11-18T05:06:05;10.70;;;3.95;;
64498;SDS011;51087;55.718;21.122;2023-11-18T05:08:30;9.27;;;3.40;;
64498;SDS011;51087;55.718;21.122;2023-11-18T05:10:55;9.40;;;4.30;;
64498;SDS011;51087;55.718;21.122;2023-11-18T05:13:22;9.20;;;4.35;;
64498;SDS011;51087;55.718;21.122;2023-11-18T05:15:48;10.43;;;4.35;;
64498;SDS011;51087;55.718;21.122;2023-11-18T05:18:15;8.68;;;4.15;;
64498;SDS011;51087;55.718;21.122;2023-11-18T05:20:41;10.88;;;4.13;;
64498;SDS011;51087;55.718;21.122;2023-11-18T05:23:06;10.88;;;4.07;;
64498;SDS011;51087;55.718;21.122;2023-11-18T05:25:34;10.85;;;4.68;;
64498;SDS011;51087;55.718;21.122;2023-11-18T05:28:00;14.43;;;4.78;;
64498;SDS011;51087;55.718;21.122;2023-11-18T05:30:25;12.05;;;3.70;;
64498;SDS011;51087;55.718;21.122;2023-11-18T05:32:51;9.20;;;4.38;;
64498;SDS011;51087;55.718;21.122;2023-11-18T05:35:16;9.48;;;4.40;;
64498;SDS011;51087;55.718;21.122;2023-11-18T05:37:42;8.55;;;4.75;;
64498;SDS011;51087;55.718;21.122;2023-11-18T05:40:07;11.25;;;4.40;;
64498;SDS011;51087;55.718;21.122;2023-11-18T05:42:35;9.30;;;4.25;;
64498;SDS011;51087;55.718;21.122;2023-11-18T05:45:02;12.25;;;4.47;;
64498;SDS011;51087;55.718;21.122;2023-11-18T05:47:27;8.43;;;4.57;;
64498;SDS011;51087;55.718;21.122;2023-11-18T05:49:53;9.82;;;4.53;;
64498;SDS011;51087;55.718;21.122;2023-11-18T05:52:19;15.10;;;4.50;;
64498;SDS011;51087;55.718;21.122;2023-11-18T05:54:45;8.18;;;4.13;;
64498;SDS011;51087;55.718;21.122;2023-11-18T05:57:12;9.75;;;4.32;;
64498;SDS011;51087;55.718;21.122;2023-11-18T05:59:37;11.85;;;4.80;;
64498;SDS011;51087;55.718;21.122;2023-11-18T06:02:03;8.95;;;4.50;;
64498;SDS011;51087;55.718;21.122;2023-11-18T06:04:28;8.20;;;4.43;;
64498;SDS011;51087;55.718;21.122;2023-11-18T06:06:54;7.72;;;4.25;;
64498;SDS011;51087;55.718;21.122;2023-11-18T06:09:19;9.27;;;4.78;;
64498;SDS011;51087;55.718;21.122;2023-11-18T06:11:49;9.90;;;5.05;;
64498;SDS011;51087;55.718;21.122;2023-11-18T06:14:14;11.20;;;4.68;;
64498;SDS011;51087;55.718;21.122;2023-11-18T06:16:40;12.07;;;5.13;;
64498;SDS011;51087;55.718;21.122;2023-11-18T06:19:06;9.98;;;4.53;;
64498;SDS011;51087;55.718;21.122;2023-11-18T06:21:31;15.43;;;5.68;;
64498;SDS011;51087;55.718;21.122;2023-11-18T06:23:57;12.43;;;5.63;;
64498;SDS011;51087;55.718;21.122;2023-11-18T06:26:23;14.48;;;5.85;;
64498;SDS011;51087;55.718;21.122;2023-11-18T06:28:51;11.93;;;5.03;;
64498;SDS011;51087;55.718;21.122;2023-11-18T06:31:17;12.57;;;5.32;;
64498;SDS011;51087;55.718;21.122;2023-11-18T06:33:44;10.20;;;4.57;;
64498;SDS011;51087;55.718;21.122;2023-11-18T06:36:10;14.20;;;5.15;;
64498;SDS011;51087;55.718;21.122;2023-11-18T06:38:48;17.63;;;5.55;;
64498;SDS011;51087;55.718;21.122;2023-11-18T06:41:15;11.10;;;5.18;;
64498;SDS011;51087;55.718;21.122;2023-11-18T06:43:41;15.27;;;5.75;;
64498;SDS011;51087;55.718;21.122;2023-11-18T06:48:50;12.10;;;5.22;;
64498;SDS011;51087;55.718;21.122;2023-11-18T06:51:19;14.15;;;5.72;;
64498;SDS011;51087;55.718;21.122;2023-11-18T06:53:46;9.45;;;4.95;;
64498;SDS011;51087;55.718;21.122;2023-11-18T06:56:11;10.18;;;5.10;;
64498;SDS011;51087;55.718;21.122;2023-11-18T06:58:37;9.30;;;4.72;;
64498;SDS011;51087;55.718;21.122;2023-11-18T07:01:03;9.25;;;4.95;;
64498;SDS011;51087;55.718;21.122;2023-11-18T07:03:30;11.30;;;5.40;;
64498;SDS011;51087;55.718;21.122;2023-11-18T07:05:56;11.88;;;5.65;;
64498;SDS011;51087;55.718;21.122;2023-11-18T07:08:22;12.25;;;5.78;;
64498;SDS011;51087;55.718;21.122;2023-11-18T07:10:47;10.40;;;5.35;;
64498;SDS011;51087;55.718;21.122;2023-11-18T07:13:13;15.35;;;6.20;;
64498;SDS011;51087;55.718;21.122;2023-11-18T07:15:38;12.65;;;6.20;;
64498;SDS011;51087;55.718;21.122;2023-11-18T07:18:04;13.55;;;6.70;;
64498;SDS011;51087;55.718;21.122;2023-11-18T07:20:29;13.88;;;6.22;;
64498;SDS011;51087;55.718;21.122;2023-11-18T07:22:54;15.93;;;6.57;;
64498;SDS011;51087;55.718;21.122;2023-11-18T07:25:20;10.50;;;5.05;;
64498;SDS011;51087;55.718;21.122;2023-11-18T07:27:45;12.13;;;6.03;;
64498;SDS011;51087;55.718;21.122;2023-11-18T07:30:10;13.07;;;5.45;;
64498;SDS011;51087;55.718;21.122;2023-11-18T07:32:36;11.18;;;5.22;;
64498;SDS011;51087;55.718;21.122;2023-11-18T07:35:01;13.05;;;5.47;;
64498;SDS011;51087;55.718;21.122;2023-11-18T07:37:27;24.35;;;9.15;;
64498;SDS011;51087;55.718;21.122;2023-11-18T07:39:52;15.18;;;6.72;;
64498;SDS011;51087;55.718;21.122;2023-11-18T07:42:20;10.30;;;5.50;;
64498;SDS011;51087;55.718;21.122;2023-11-18T07:44:45;12.10;;;5.88;;
64498;SDS011;51087;55.718;21.122;2023-11-18T07:47:11;13.23;;;5.72;;
64498;SDS011;51087;55.718;21.122;2023-11-18T07:49:36;10.57;;;5.40;;
64498;SDS011;51087;55.718;21.122;2023-11-18T07:52:02;10.20;;;5.28;;
64498;SDS011;51087;55.718;21.122;2023-11-18T07:54:27;9.48;;;4.78;;
64498;SDS011;51087;55.718;21.122;2023-11-18T07:56:53;9.88;;;4.60;;
64498;SDS011;51087;55.718;21.122;2023-11-18T07:59:19;13.70;;;5.07;;
64498;SDS011;51087;55.718;21.122;2023-11-18T08:01:44;13.60;;;5.53;;
64498;SDS011;51087;55.718;21.122;2023-11-18T08:04:11;12.65;;;5.55;;
64498;SDS011;51087;55.718;21.122;2023-11-18T08:06:38;17.15;;;6.00;;
64498;SDS011;51087;55.718;21.122;2023-11-18T08:09:04;14.60;;;6.75;;
64498;SDS011;51087;55.718;21.122;2023-11-18T08:11:29;17.50;;;6.88;;
64498;SDS011;51087;55.718;21.122;2023-11-18T08:13:54;12.95;;;6.18;;
64498;SDS011;51087;55.718;21.122;2023-11-18T08:16:20;10.32;;;4.72;;
64498;SDS011;51087;55.718;21.122;2023-11-18T08:18:47;13.23;;;6.32;;
64498;SDS011;51087;55.718;21.122;2023-11-18T08:21:12;10.90;;;5.70;;
64498;SDS011;51087;55.718;21.122;2023-11-18T08:23:38;15.82;;;6.32;;
64498;SDS011;51087;55.718;21.122;2023-11-18T08:26:03;14.95;;;5.72;;
64498;SDS011;51087;55.718;21.122;2023-11-18T08:28:30;14.10;;;6.10;;
64498;SDS011;51087;55.718;21.122;2023-11-18T08:30:56;20.38;;;7.05;;
64498;SDS011;51087;55.718;21.122;2023-11-18T08:33:21;15.68;;;6.97;;
64498;SDS011;51087;55.718;21.122;2023-11-18T08:35:49;13.77;;;6.22;;
64498;SDS011;51087;55.718;21.122;2023-11-18T08:38:14;10.60;;;5.20;;
64498;SDS011;51087;55.718;21.122;2023-11-18T08:40:39;12.93;;;5.13;;
64498;SDS011;51087;55.718;21.122;2023-11-18T08:43:05;12.02;;;5.72;;
64498;SDS011;51087;55.718;21.122;2023-11-18T08:45:35;15.80;;;6.97;;
64498;SDS011;51087;55.718;21.122;2023-11-18T08:48:02;13.75;;;6.95;;
64498;SDS011;51087;55.718;21.122;2023-11-18T08:50:35;17.05;;;7.13;;
64498;SDS011;51087;55.718;21.122;2023-11-18T08:53:01;20.77;;;7.60;;
64498;SDS011;51087;55.718;21.122;2023-11-18T08:55:31;13.68;;;7.05;;
64498;SDS011;51087;55.718;21.122;2023-11-18T08:58:06;15.07;;;6.90;;
64498;SDS011;51087;55.718;21.122;2023-11-18T09:00:45;16.27;;;6.80;;
64498;SDS011;51087;55.718;21.122;2023-11-18T09:03:14;16.05;;;7.95;;
64498;SDS011;51087;55.718;21.122;2023-11-18T09:06:00;22.55;;;8.50;;
64498;SDS011;51087;55.718;21.122;2023-11-18T09:11:00;14.73;;;7.18;;
64498;SDS011;51087;55.718;21.122;2023-11-18T09:13:26;11.98;;;6.20;;
64498;SDS011;51087;55.718;21.122;2023-11-18T09:16:28;11.77;;;6.50;;
64498;SDS011;51087;55.718;21.122;2023-11-18T09:18:54;14.02;;;6.28;;
64498;SDS011;51087;55.718;21.122;2023-11-18T09:21:19;12.82;;;6.03;;
64498;SDS011;51087;55.718;21.122;2023-11-18T09:23:50;10.57;;;5.80;;
64498;SDS011;51087;55.718;21.122;2023-11-18T09:26:16;10.60;;;5.90;;
64498;SDS011;51087;55.718;21.122;2023-11-18T09:28:41;15.63;;;6.43;;
64498;SDS011;51087;55.718;21.122;2023-11-18T09:31:07;12.77;;;6.82;;
64498;SDS011;51087;55.718;21.122;2023-11-18T09:33:36;21.58;;;7.78;;
64498;SDS011;51087;55.718;21.122;2023-11-18T09:36:02;13.45;;;6.85;;
64498;SDS011;51087;55.718;21.122;2023-11-18T09:38:32;12.75;;;6.80;;
64498;SDS011;51087;55.718;21.122;2023-11-18T09:41:00;13.57;;;6.82;;
64498;SDS011;51087;55.718;21.122;2023-11-18T09:43:30;13.73;;;6.80;;
64498;SDS011;51087;55.718;21.122;2023-11-18T09:46:05;17.63;;;7.28;;
64498;SDS011;51087;55.718;21.122;2023-11-18T09:48:39;14.70;;;7.07;;
64498;SDS011;51087;55.718;21.122;2023-11-18T09:51:06;15.57;;;7.05;;
64498;SDS011;51087;55.718;21.122;2023-11-18T09:53:32;14.88;;;7.00;;
64498;SDS011;51087;55.718;21.122;2023-11-18T09:56:13;15.38;;;7.20;;
64498;SDS011;51087;55.718;21.122;2023-11-18T09:58:46;14.45;;;6.75;;
64498;SDS011;51087;55.718;21.122;2023-11-18T10:01:14;14.35;;;7.07;;
64498;SDS011;51087;55.718;21.122;2023-11-18T10:03:43;15.23;;;7.20;;
64498;SDS011;51087;55.718;21.122;2023-11-18T10:06:11;16.65;;;7.60;;
64498;SDS011;51087;55.718;21.122;2023-11-18T10:08:37;18.67;;;9.25;;
64498;SDS011;51087;55.718;21.122;2023-11-18T10:11:04;15.70;;;7.30;;
64498;SDS011;51087;55.718;21.122;2023-11-18T10:13:34;13.57;;;6.88;;
64498;SDS011;51087;55.718;21.122;2023-11-18T10:16:02;16.88;;;8.02;;
64498;SDS011;51087;55.718;21.122;2023-11-18T10:18:30;14.85;;;7.63;;
64498;SDS011;51087;55.718;21.122;2023-11-18T10:21:00;19.77;;;7.25;;
64498;SDS011;51087;55.718;21.122;2023-11-18T10:23:26;14.77;;;7.57;;
64498;SDS011;51087;55.718;21.122;2023-11-18T10:25:55;14.45;;;6.80;;
64498;SDS011;51087;55.718;21.122;2023-11-18T10:28:26;13.07;;;6.68;;
64498;SDS011;51087;55.718;21.122;2023-11-18T10:30:57;15.45;;;7.72;;
64498;SDS011;51087;55.718;21.122;2023-11-18T10:33:24;14.80;;;7.82;;
64498;SDS011;51087;55.718;21.122;2023-11-18T10:35:55;16.02;;;8.38;;
64498;SDS011;51087;55.718;21.122;2023-11-18T10:38:21;15.52;;;7.97;;
64498;SDS011;51087;55.718;21.122;2023-11-18T10:40:50;13.20;;;7.43;;
64498;SDS011;51087;55.718;21.122;2023-11-18T10:43:15;13.30;;;7.10;;
64498;SDS011;51087;55.718;21.122;2023-11-18T10:45:42;14.40;;;7.60;;
64498;SDS011;51087;55.718;21.122;2023-11-18T10:48:07;12.45;;;7.15;;
64498;SDS011;51087;55.718;21.122;2023-11-18T10:50:33;15.75;;;7.70;;
64498;SDS011;51087;55.718;21.122;2023-11-18T10:52:59;18.60;;;7.50;;
64498;SDS011;51087;55.718;21.122;2023-11-18T10:55:34;19.45;;;9.80;;
64498;SDS011;51087;55.718;21.122;2023-11-18T10:58:00;16.55;;;8.48;;
64498;SDS011;51087;55.718;21.122;2023-11-18T11:00:25;15.60;;;8.20;;
64498;SDS011;51087;55.718;21.122;2023-11-18T11:02:57;13.90;;;7.65;;
64498;SDS011;51087;55.718;21.122;2023-11-18T11:05:29;15.85;;;8.18;;
64498;SDS011;51087;55.718;21.122;2023-11-18T11:08:01;16.75;;;8.25;;
64498;SDS011;51087;55.718;21.122;2023-11-18T11:10:27;13.55;;;7.13;;
64498;SDS011;51087;55.718;21.122;2023-11-18T11:12:54;16.00;;;8.82;;
64498;SDS011;51087;55.718;21.122;2023-11-18T11:15:26;17.75;;;8.05;;
64498;SDS011;51087;55.718;21.122;2023-11-18T11:17:54;17.73;;;8.02;;
64498;SDS011;51087;55.718;21.122;2023-11-18T11:20:27;18.58;;;9.48;;
64498;SDS011;51087;55.718;21.122;2023-11-18T11:28:21;18.92;;;8.93;;
64498;SDS011;51087;55.718;21.122;2023-11-18T11:30:50;17.08;;;8.50;;
64498;SDS011;51087;55.718;21.122;2023-11-18T11:35:57;18.83;;;8.60;;
64498;SDS011;51087;55.718;21.122;2023-11-18T11:38:25;16.45;;;8.80;;
64498;SDS011;51087;55.718;21.122;2023-11-18T11:40:51;22.10;;;10.68;;
64498;SDS011;51087;55.718;21.122;2023-11-18T11:43:19;19.75;;;8.57;;
64498;SDS011;51087;55.718;21.122;2023-11-18T11:45:46;18.00;;;8.82;;
64498;SDS011;51087;55.718;21.122;2023-11-18T11:48:12;16.58;;;9.02;;
64498;SDS011;51087;55.718;21.122;2023-11-18T11:50:45;14.40;;;8.15;;
64498;SDS011;51087;55.718;21.122;2023-11-18T11:55:44;18.08;;;8.70;;
64498;SDS011;51087;55.718;21.122;2023-11-18T11:58:26;17.48;;;8.43;;
64498;SDS011;51087;55.718;21.122;2023-11-18T12:00:52;15.45;;;8.25;;
64498;SDS011;51087;55.718;21.122;2023-11-18T12:03:20;18.00;;;9.32;;
64498;SDS011;51087;55.718;21.122;2023-11-18T12:05:47;15.98;;;8.20;;
64498;SDS011;51087;55.718;21.122;2023-11-18T12:08:13;16.65;;;8.48;;
64498;SDS011;51087;55.718;21.122;2023-11-18T12:10:38;18.15;;;7.50;;
64498;SDS011;51087;55.718;21.122;2023-11-18T12:13:11;18.45;;;8.98;;
64498;SDS011;51087;55.718;21.122;2023-11-18T12:15:56;18.40;;;8.05;;
64498;SDS011;51087;55.718;21.122;2023-11-18T12:18:41;20.77;;;8.82;;
64498;SDS011;51087;55.718;21.122;2023-11-18T12:21:08;12.05;;;6.68;;
64498;SDS011;51087;55.718;21.122;2023-11-18T12:26:39;16.05;;;8.18;;
64498;SDS011;51087;55.718;21.122;2023-11-18T12:29:05;13.40;;;7.63;;
64498;SDS011;51087;55.718;21.122;2023-11-18T12:31:50;14.93;;;7.60;;
64498;SDS011;51087;55.718;21.122;2023-11-18T12:34:15;13.32;;;6.90;;
64498;SDS011;51087;55.718;21.122;2023-11-18T12:36:46;12.75;;;7.28;;
64498;SDS011;51087;55.718;21.122;2023-11-18T12:41:42;11.52;;;6.38;;
64498;SDS011;51087;55.718;21.122;2023-11-18T12:46:54;16.98;;;7.15;;
64498;SDS011;51087;55.718;21.122;2023-11-18T12:49:26;15.23;;;6.95;;
64498;SDS011;51087;55.718;21.122;2023-11-18T12:51:53;20.83;;;8.95;;
64498;SDS011;51087;55.718;21.122;2023-11-18T12:54:20;12.95;;;6.80;;
64498;SDS011;51087;55.718;21.122;2023-11-18T12:56:45;10.50;;;6.15;;
64498;SDS011;51087;55.718;21.122;2023-11-18T12:59:15;14.00;;;6.57;;
64498;SDS011;51087;55.718;21.122;2023-11-18T13:01:43;11.88;;;6.25;;
64498;SDS011;51087;55.718;21.122;2023-11-18T13:04:08;11.40;;;6.22;;
64498;SDS011;51087;55.718;21.122;2023-11-18T13:06:36;11.95;;;5.97;;
64498;SDS011;51087;55.718;21.122;2023-11-18T13:09:03;23.70;;;11.85;;
64498;SDS011;51087;55.718;21.122;2023-11-18T13:11:34;12.90;;;7.15;;
64498;SDS011;51087;55.718;21.122;2023-11-18T13:14:00;12.20;;;6.20;;
64498;SDS011;51087;55.718;21.122;2023-11-18T13:16:25;21.90;;;8.60;;
64498;SDS011;51087;55.718;21.122;2023-11-18T13:18:50;12.52;;;6.47;;
64498;SDS011;51087;55.718;21.122;2023-11-18T13:21:17;14.13;;;6.53;;
64498;SDS011;51087;55.718;21.122;2023-11-18T13:23:46;8.77;;;4.75;;
64498;SDS011;51087;55.718;21.122;2023-11-18T13:26:15;13.02;;;6.28;;
64498;SDS011;51087;55.718;21.122;2023-11-18T13:28:41;10.15;;;4.80;;
64498;SDS011;51087;55.718;21.122;2023-11-18T13:31:06;9.20;;;4.75;;
64498;SDS011;51087;55.718;21.122;2023-11-18T13:33:40;11.40;;;5.95;;
64498;SDS011;51087;55.718;21.122;2023-11-18T13:36:06;11.18;;;5.32;;
64498;SDS011;51087;55.718;21.122;2023-11-18T13:38:32;11.32;;;5.53;;
64498;SDS011;51087;55.718;21.122;2023-11-18T13:40:58;11.77;;;4.82;;
64498;SDS011;51087;55.718;21.122;2023-11-18T13:43:23;8.65;;;5.10;;
64498;SDS011;51087;55.718;21.122;2023-11-18T13:45:52;10.32;;;5.00;;
64498;SDS011;51087;55.718;21.122;2023-11-18T13:48:18;8.77;;;5.07;;
64498;SDS011;51087;55.718;21.122;2023-11-18T13:50:43;9.73;;;4.97;;
64498;SDS011;51087;55.718;21.122;2023-11-18T13:53:09;7.85;;;4.90;;
64498;SDS011;51087;55.718;21.122;2023-11-18T13:55:35;12.50;;;5.15;;
64498;SDS011;51087;55.718;21.122;2023-11-18T13:58:03;8.55;;;4.95;;
64498;SDS011;51087;55.718;21.122;2023-11-18T14:00:35;8.57;;;4.65;;
64498;SDS011;51087;55.718;21.122;2023-11-18T14:03:01;8.60;;;5.13;;
64498;SDS011;51087;55.718;21.122;2023-11-18T14:05:32;15.98;;;10.18;;
64498;SDS011;51087;55.718;21.122;2023-11-18T14:07:58;12.65;;;6.47;;
64498;SDS011;51087;55.718;21.122;2023-11-18T14:10:33;9.57;;;5.20;;
64498;SDS011;51087;55.718;21.122;2023-11-18T14:13:02;10.52;;;5.85;;
64498;SDS011;51087;55.718;21.122;2023-11-18T14:15:28;9.30;;;6.00;;
64498;SDS011;51087;55.718;21.122;2023-11-18T14:17:53;8.20;;;5.25;;
64498;SDS011;51087;55.718;21.122;2023-11-18T14:20:18;10.93;;;5.85;;
64498;SDS011;51087;55.718;21.122;2023-11-18T14:22:47;16.20;;;7.75;;
64498;SDS011;51087;55.718;21.122;2023-11-18T14:25:12;14.68;;;7.22;;
64498;SDS011;51087;55.718;21.122;2023-11-18T14:27:37;14.32;;;7.40;;
64498;SDS011;51087;55.718;21.122;2023-11-18T14:30:03;12.95;;;7.05;;
64498;SDS011;51087;55.718;21.122;2023-11-18T14:32:33;14.20;;;7.43;;
64498;SDS011;51087;55.718;21.122;2023-11-18T14:34:59;12.30;;;7.22;;
64498;SDS011;51087;55.718;21.122;2023-11-18T14:37:24;19.88;;;8.15;;
64498;SDS011;51087;55.718;21.122;2023-11-18T14:39:50;16.58;;;7.28;;
64498;SDS011;51087;55.718;21.122;2023-11-18T14:44:50;15.55;;;7.15;;
64498;SDS011;51087;55.718;21.122;2023-11-18T14:47:17;19.42;;;9.75;;
64498;SDS011;51087;55.718;21.122;2023-11-18T14:49:42;17.63;;;8.50;;
64498;SDS011;51087;55.718;21.122;2023-11-18T14:52:07;18.58;;;9.32;;
64498;SDS011;51087;55.718;21.122;2023-11-18T14:54:33;15.52;;;7.97;;